Time,TemperatureF,DewpointF,PressureIn,WindDirection,WindDirectionDegrees,WindSpeedMPH,WindSpeedGustMPH,Humidity,HourlyPrecipIn,Conditions,Clouds,dailyrainin,SoftwareType,DateUTC
2013-04-04 00:00:00,45.5,30.3,30.29,NE,53,0.0,0.0,55,0.00,CLR,,0.00,WeatherDisplay:10.37,2013-04-04 04:00:00,
2013-04-04 00:05:00,45.5,31.1,30.29,NE,52,0.0,0.0,57,0.00,CLR,,0.00,WeatherDisplay:10.37,2013-04-04 04:05:00,
2013-04-04 00:10:00,45.3,31.0,30.28,NE,53,0.0,0.0,57,0.00,CLR,,0.00,WeatherDisplay:10.37,2013-04-04 04:10:00,
2013-04-04 00:15:00,45.2,30.9,30.28,NE,53,0.0,0.0,57,0.00,CLR,,0.00,WeatherDisplay:10.37,2013-04-04 04:15:00,
2013-04-04 00:20:00,45.2,30.4,30.28,NE,53,0.0,0.0,56,0.00,CLR,,0.00,WeatherDisplay:10.37,2013-04-04 04:20:00,
2013-04-04 00:25:00,45.0,30.2,30.28,NE,53,0.0,0.0,56,0.00,CLR,,0.00,WeatherDisplay:10.37,2013-04-04 04:25:00,
2013-04-04 00:30:00,44.9,30.1,30.28,NE,53,0.0,0.0,56,0.00,CLR,,0.00,WeatherDisplay:10.37,2013-04-04 04:30:00,
2013-04-04 00:35:00,44.9,31.4,30.28,NE,52,0.0,0.0,59,0.00,CLR,,0.00,WeatherDisplay:10.37,2013-04-04 04:35:00,
2013-04-04 00:40:00,44.8,30.5,30.28,NE,53,0.0,0.0,57,0.00,CLR,,0.00,WeatherDisplay:10.37,2013-04-04 04:40:00,
2013-04-04 00:45:00,44.7,30.8,30.28,NE,52,0.0,0.0,58,0.00,CLR,,0.00,WeatherDisplay:10.37,2013-04-04 04:45:00,
2013-04-04 00:50:00,44.6,30.3,30.28,NE,52,0.0,0.0,57,0.00,CLR,,0.00,WeatherDisplay:10.37,2013-04-04 04:50:00,
2013-04-04 00:55:00,44.4,29.7,30.28,NE,52,0.0,0.0,56,0.00,CLR,,0.00,WeatherDisplay:10.37,2013-04-04 04:55:00,
2013-04-04 01:00:00,44.3,30.0,30.28,NE,52,0.0,0.0,57,0.00,CLR,,0.00,WeatherDisplay:10.37,2013-04-04 05:00:00,
2013-04-04 01:05:00,44.1,30.7,30.28,NE,53,0.0,0.0,59,0.00,CLR,,0.00,WeatherDisplay:10.37,2013-04-04 05:05:00,
2013-04-04 01:10:00,44.0,30.2,30.28,NE,52,0.0,0.0,58,0.00,CLR,,0.00,WeatherDisplay:10.37,2013-04-04 05:10:00,
2013-04-04 01:15:00,43.8,30.4,30.28,NE,53,0.0,0.0,59,0.00,CLR,,0.00,WeatherDisplay:10.37,2013-04-04 05:15:00,
2013-04-04 01:20:00,43.6,30.2,30.27,NE,53,0.0,0.0,59,0.00,CLR,,0.00,WeatherDisplay:10.37,2013-04-04 05:20:00,
2013-04-04 01:25:00,43.3,30.3,30.27,NE,53,0.0,0.0,60,0.00,CLR,,0.00,WeatherDisplay:10.37,2013-04-04 05:25:00,
2013-04-04 01:30:00,43.1,32.1,30.28,WNW,290,3.5,3.5,65,0.00,CLR,,0.00,WeatherDisplay:10.37,2013-04-04 05:30:00,
2013-04-04 01:35:00,43.7,29.5,30.28,North,352,9.0,9.0,57,0.00,CLR,,0.00,WeatherDisplay:10.37,2013-04-04 05:35:00,
2013-04-04 01:40:00,44.2,28.1,30.29,West,263,8.0,8.0,53,0.00,CLR,,0.00,WeatherDisplay:10.37,2013-04-04 05:40:00,
2013-04-04 01:45:00,44.3,27.3,30.29,SE,129,4.6,4.8,51,0.00,CLR,,0.00,WeatherDisplay:10.37,2013-04-04 05:45:00,
2013-04-04 01:50:00,44.4,26.4,30.29,NNW,329,3.5,3.5,49,0.00,CLR,,0.00,WeatherDisplay:10.37,2013-04-04 05:50:00,
2013-04-04 01:55:00,44.4,25.9,30.30,NNE,33,4.6,4.6,48,0.00,CLR,,0.00,WeatherDisplay:10.37,2013-04-04 05:55:00,
2013-04-04 02:00:00,44.4,25.9,30.29,NNW,329,3.5,3.5,48,0.00,CLR,,0.00,WeatherDisplay:10.37,2013-04-04 06:00:00,
2013-04-04 02:05:00,44.3,25.3,30.29,NNW,345,4.6,4.6,47,0.00,CLR,,0.00,WeatherDisplay:10.37,2013-04-04 06:05:00,
2013-04-04 02:10:00,44.3,25.3,30.29,SW,215,3.5,3.5,47,0.00,CLR,,0.00,WeatherDisplay:10.37,2013-04-04 06:10:00,
2013-04-04 02:15:00,44.2,25.2,30.29,NNW,330,2.3,2.3,47,0.00,CLR,,0.00,WeatherDisplay:10.37,2013-04-04 06:15:00,
2013-04-04 02:20:00,44.1,25.1,30.29,NNE,12,5.8,5.8,47,0.00,CLR,,0.00,WeatherDisplay:10.37,2013-04-04 06:20:00,
2013-04-04 02:25:00,44.0,25.0,30.29,North,352,3.5,3.5,47,0.00,CLR,,0.00,WeatherDisplay:10.37,2013-04-04 06:25:00,
2013-04-04 02:30:00,43.9,24.9,30.29,East,82,6.9,6.9,47,0.00,CLR,,0.00,WeatherDisplay:10.37,2013-04-04 06:30:00,
2013-04-04 02:35:00,43.8,24.9,30.29,NE,34,3.5,3.5,47,0.00,CLR,,0.00,WeatherDisplay:10.37,2013-04-04 06:35:00,
2013-04-04 02:40:00,43.7,25.3,30.29,SE,132,3.5,3.5,48,0.00,CLR,,0.00,WeatherDisplay:10.37,2013-04-04 06:40:00,
2013-04-04 02:45:00,43.6,25.2,30.29,North,9,3.5,3.5,48,0.00,CLR,,0.00,WeatherDisplay:10.37,2013-04-04 06:45:00,
2013-04-04 02:50:00,43.5,25.6,30.28,North,11,1.1,1.1,49,0.00,CLR,,0.00,WeatherDisplay:10.37,2013-04-04 06:50:00,
2013-04-04 02:55:00,43.4,25.5,30.28,East,97,5.8,5.8,49,0.00,CLR,,0.00,WeatherDisplay:10.37,2013-04-04 06:55:00,
2013-04-04 03:00:00,43.3,25.4,30.28,SW,221,4.6,4.6,49,0.00,CLR,,0.00,WeatherDisplay:10.37,2013-04-04 07:00:00,
2013-04-04 03:05:00,43.2,25.3,30.29,NNW,327,3.5,3.5,49,0.00,CLR,,0.00,WeatherDisplay:10.37,2013-04-04 07:05:00,
2013-04-04 03:10:00,43.0,25.6,30.29,NE,50,3.5,3.5,50,0.00,CLR,,0.00,WeatherDisplay:10.37,2013-04-04 07:10:00,
2013-04-04 03:15:00,42.9,26.0,30.29,East,92,3.5,0.0,51,0.00,CLR,,0.00,WeatherDisplay:10.37,2013-04-04 07:15:00,
2013-04-04 03:20:00,42.8,25.9,30.29,NW,323,3.5,3.5,51,0.00,CLR,,0.00,WeatherDisplay:10.37,2013-04-04 07:20:00,
2013-04-04 03:27:00,42.8,26.8,30.30,WSW,247,3.5,0.0,53,0.00,CLR,,0.00,WeatherDisplay:10.37,2013-04-04 07:27:00,
2013-04-04 03:32:00,42.6,27.1,30.30,NE,44,1.1,1.1,54,0.00,CLR,,0.00,WeatherDisplay:10.37,2013-04-04 07:32:00,
2013-04-04 03:37:00,42.4,27.8,30.30,NNE,25,4.6,4.6,56,0.00,CLR,,0.00,WeatherDisplay:10.37,2013-04-04 07:37:00,
2013-04-04 03:42:00,42.3,28.1,30.30,NE,34,5.8,5.8,57,0.00,CLR,,0.00,WeatherDisplay:10.37,2013-04-04 07:42:00,
2013-04-04 03:47:00,42.2,28.9,30.30,NW,323,2.3,2.3,59,0.00,CLR,,0.00,WeatherDisplay:10.37,2013-04-04 07:47:00,
2013-04-04 03:52:00,42.1,29.6,30.30,NNW,332,4.6,4.6,61,0.00,CLR,,0.00,WeatherDisplay:10.37,2013-04-04 07:52:00,
2013-04-04 03:57:00,41.9,29.8,30.30,SE,145,3.5,3.5,62,0.00,CLR,,0.00,WeatherDisplay:10.37,2013-04-04 07:57:00,
2013-04-04 04:02:00,41.7,30.0,30.30,NNW,338,1.1,1.1,63,0.00,CLR,,0.00,WeatherDisplay:10.37,2013-04-04 08:02:00,
2013-04-04 04:07:00,41.6,30.7,30.30,NE,51,4.6,4.6,65,0.00,CLR,,0.00,WeatherDisplay:10.37,2013-04-04 08:07:00,
2013-04-04 04:12:00,41.5,31.4,30.30,NW,308,3.5,3.5,67,0.00,CLR,,0.00,WeatherDisplay:10.37,2013-04-04 08:12:00,
2013-04-04 04:17:00,41.5,31.7,30.29,SE,131,3.5,3.5,68,0.00,CLR,,0.00,WeatherDisplay:10.37,2013-04-04 08:17:00,
2013-04-04 04:22:00,41.4,32.0,30.30,ESE,118,2.3,2.3,69,0.00,CLR,,0.00,WeatherDisplay:10.37,2013-04-04 08:22:00,
2013-04-04 04:27:00,41.4,32.3,30.30,West,260,1.1,1.1,70,0.00,CLR,,0.00,WeatherDisplay:10.37,2013-04-04 08:27:00,
2013-04-04 04:32:00,41.4,32.3,30.31,ESE,120,0.0,0.2,70,0.00,CLR,,0.00,WeatherDisplay:10.37,2013-04-04 08:32:00,
2013-04-04 04:37:00,41.4,32.7,30.30,South,186,4.0,4.0,71,0.00,CLR,,0.00,WeatherDisplay:10.37,2013-04-04 08:37:00,
2013-04-04 04:42:00,41.4,32.7,30.30,ENE,71,2.3,2.3,71,0.00,CLR,,0.00,WeatherDisplay:10.37,2013-04-04 08:42:00,
2013-04-04 04:47:00,41.4,32.7,30.30,NNW,340,3.5,3.5,71,0.00,CLR,,0.00,WeatherDisplay:10.37,2013-04-04 08:47:00,
2013-04-04 04:52:00,41.4,32.7,30.30,North,360,2.3,2.3,71,0.00,CLR,,0.00,WeatherDisplay:10.37,2013-04-04 08:52:00,
2013-04-04 04:58:00,41.5,32.8,30.31,SSE,155,2.3,2.3,71,0.00,CLR,,0.00,WeatherDisplay:10.37,2013-04-04 08:58:00,
2013-04-04 05:03:00,41.5,32.4,30.31,North,349,3.5,3.5,70,0.00,CLR,,0.00,WeatherDisplay:10.37,2013-04-04 09:03:00,
2013-04-04 05:08:00,41.6,32.5,30.31,NNW,339,3.0,3.0,70,0.00,CLR,,0.00,WeatherDisplay:10.37,2013-04-04 09:08:00,
2013-04-04 05:13:00,41.6,32.5,30.31,ESE,110,2.3,2.3,70,0.00,CLR,,0.00,WeatherDisplay:10.37,2013-04-04 09:13:00,
2013-04-04 05:18:00,41.6,32.2,30.31,ESE,122,4.6,4.6,69,0.00,CLR,,0.00,WeatherDisplay:10.37,2013-04-04 09:18:00,
2013-04-04 05:23:00,41.5,32.1,30.31,ESE,117,2.3,2.3,69,0.00,CLR,,0.00,WeatherDisplay:10.37,2013-04-04 09:23:00,
2013-04-04 05:28:00,41.4,32.0,30.31,ESE,113,2.3,2.3,69,0.00,CLR,,0.00,WeatherDisplay:10.37,2013-04-04 09:28:00,
2013-04-04 05:33:00,41.3,31.9,30.32,SE,146,3.5,3.5,69,0.00,CLR,,0.00,WeatherDisplay:10.37,2013-04-04 09:33:00,
2013-04-04 05:38:00,41.2,31.4,30.32,ENE,71,2.3,2.3,68,0.00,CLR,,0.00,WeatherDisplay:10.37,2013-04-04 09:38:00,
2013-04-04 05:43:00,41.1,31.3,30.32,ENE,77,1.0,1.0,68,0.00,CLR,,0.00,WeatherDisplay:10.37,2013-04-04 09:43:00,
2013-04-04 05:48:00,41.0,31.2,30.32,West,276,2.3,2.3,68,0.00,CLR,,0.00,WeatherDisplay:10.37,2013-04-04 09:48:00,
2013-04-04 05:53:00,40.9,31.1,30.32,East,80,3.5,3.5,68,0.00,CLR,,0.00,WeatherDisplay:10.37,2013-04-04 09:53:00,
2013-04-04 05:58:00,40.8,31.1,30.31,East,80,3.5,3.5,68,0.00,CLR,,0.00,WeatherDisplay:10.37,2013-04-04 09:58:00,
2013-04-04 06:03:00,40.6,30.9,30.32,East,87,3.5,3.5,68,0.00,CLR,,0.00,WeatherDisplay:10.37,2013-04-04 10:03:00,
2013-04-04 06:08:00,40.5,30.4,30.32,East,100,2.3,2.3,67,0.00,CLR,,0.00,WeatherDisplay:10.37,2013-04-04 10:08:00,
2013-04-04 06:13:00,40.4,30.3,30.32,NE,53,1.1,1.1,67,0.00,CLR,,0.00,WeatherDisplay:10.37,2013-04-04 10:13:00,
2013-04-04 06:18:00,40.4,30.7,30.32,NE,56,1.1,1.1,68,0.00,CLR,,0.00,WeatherDisplay:10.37,2013-04-04 10:18:00,
2013-04-04 06:23:00,40.3,30.6,30.32,East,91,3.5,3.5,68,0.00,CLR,,0.00,WeatherDisplay:10.37,2013-04-04 10:23:00,
2013-04-04 06:28:00,40.4,30.3,30.33,East,87,2.3,2.3,67,0.00,CLR,,0.00,WeatherDisplay:10.37,2013-04-04 10:28:00,
2013-04-04 06:33:00,40.3,29.8,30.32,South,178,3.5,3.5,66,0.00,CLR,,0.00,WeatherDisplay:10.37,2013-04-04 10:33:00,
2013-04-04 06:38:00,40.4,29.9,30.33,ESE,117,4.6,4.6,66,0.00,CLR,,0.00,WeatherDisplay:10.37,2013-04-04 10:38:00,
2013-04-04 06:43:00,40.4,29.9,30.33,NW,323,3.5,3.5,66,0.00,CLR,,0.00,WeatherDisplay:10.37,2013-04-04 10:43:00,
2013-04-04 06:49:00,40.3,29.8,30.32,SSE,158,2.3,2.3,66,0.00,CLR,,0.00,WeatherDisplay:10.37,2013-04-04 10:49:00,
2013-04-04 06:54:00,40.2,29.7,30.33,ESE,108,3.5,3.5,66,0.00,CLR,,0.00,WeatherDisplay:10.37,2013-04-04 10:54:00,
2013-04-04 06:59:00,40.2,29.7,30.33,NE,41,3.5,3.5,66,0.00,CLR,,0.00,WeatherDisplay:10.37,2013-04-04 10:59:00,
2013-04-04 07:04:00,40.1,29.6,30.33,SSE,148,4.6,4.6,66,0.00,CLR,,0.00,WeatherDisplay:10.37,2013-04-04 11:04:00,
2013-04-04 07:09:00,40.1,29.6,30.33,ENE,75,4.0,4.0,66,0.00,CLR,,0.00,WeatherDisplay:10.37,2013-04-04 11:09:00,
2013-04-04 07:14:00,40.0,29.6,30.33,ENE,65,3.0,3.0,66,0.00,CLR,,0.00,WeatherDisplay:10.37,2013-04-04 11:14:00,
2013-04-04 07:19:00,40.0,29.2,30.34,SSE,150,3.0,3.0,65,0.00,CLR,,0.00,WeatherDisplay:10.37,2013-04-04 11:19:00,
2013-04-04 07:24:00,40.0,29.2,30.34,NE,51,5.0,5.0,65,0.00,CLR,,0.00,WeatherDisplay:10.37,2013-04-04 11:24:00,
2013-04-04 07:29:00,40.0,29.2,30.34,East,83,2.3,2.3,65,0.00,CLR,,0.00,WeatherDisplay:10.37,2013-04-04 11:29:00,
2013-04-04 07:35:00,40.1,28.9,30.35,ENE,65,3.5,3.5,64,0.00,CLR,,0.00,WeatherDisplay:10.37,2013-04-04 11:35:00,
2013-04-04 07:40:00,40.4,29.2,30.35,NNE,12,2.3,2.3,64,0.00,CLR,,0.00,WeatherDisplay:10.37,2013-04-04 11:40:00,
2013-04-04 07:45:00,40.6,29.0,30.35,West,266,3.5,3.5,63,0.00,CLR,,0.00,WeatherDisplay:10.37,2013-04-04 11:45:00,
2013-04-04 07:50:00,40.8,29.2,30.35,SSW,204,3.5,3.5,63,0.00,CLR,,0.00,WeatherDisplay:10.37,2013-04-04 11:50:00,
2013-04-04 07:55:00,41.4,29.3,30.34,NNW,342,3.5,3.5,62,0.00,CLR,,0.00,WeatherDisplay:10.37,2013-04-04 11:55:00,
2013-04-04 08:00:00,41.8,29.7,30.35,ENE,65,3.5,3.5,62,0.00,CLR,,0.00,WeatherDisplay:10.37,2013-04-04 12:00:00,
2013-04-04 08:05:00,42.0,29.5,30.36,SSE,163,1.1,1.1,61,0.00,CLR,,0.00,WeatherDisplay:10.37,2013-04-04 12:05:00,
2013-04-04 08:10:00,42.0,29.1,30.36,SSE,153,4.6,4.6,60,0.00,CLR,,0.00,WeatherDisplay:10.37,2013-04-04 12:10:00,
2013-04-04 08:16:00,42.1,29.2,30.36,East,96,4.6,4.6,60,0.00,CLR,,0.00,WeatherDisplay:10.37,2013-04-04 12:16:00,
2013-04-04 08:21:00,42.3,29.0,30.36,ESE,123,3.5,3.5,59,0.00,CLR,,0.00,WeatherDisplay:10.37,2013-04-04 12:21:00,
2013-04-04 08:26:00,42.5,28.8,30.36,NE,49,3.5,3.5,58,0.00,CLR,,0.00,WeatherDisplay:10.37,2013-04-04 12:26:00,
2013-04-04 08:31:00,42.6,28.8,30.36,East,80,3.5,3.5,58,0.00,CLR,,0.00,WeatherDisplay:10.37,2013-04-04 12:31:00,
2013-04-04 08:36:00,42.7,29.4,30.36,SE,129,3.5,3.5,59,0.00,CLR,,0.00,WeatherDisplay:10.37,2013-04-04 12:36:00,
2013-04-04 08:42:00,42.8,29.0,30.35,ENE,58,2.3,2.3,58,0.00,CLR,,0.00,WeatherDisplay:10.37,2013-04-04 12:42:00,
2013-04-04 08:47:00,43.1,29.3,30.35,SSE,160,3.5,3.5,58,0.00,CLR,,0.00,WeatherDisplay:10.37,2013-04-04 12:47:00,
2013-04-04 08:52:00,43.3,28.6,30.35,West,272,5.8,5.8,56,0.00,CLR,,0.00,WeatherDisplay:10.37,2013-04-04 12:52:00,
2013-04-04 08:57:00,43.8,29.1,30.35,ESE,117,3.5,3.5,56,0.00,CLR,,0.00,WeatherDisplay:10.37,2013-04-04 12:57:00,
2013-04-04 09:02:00,43.8,28.7,30.35,ESE,120,4.6,4.6,55,0.00,CLR,,0.00,WeatherDisplay:10.37,2013-04-04 13:02:00,
2013-04-04 09:07:00,43.8,29.1,30.35,NNE,23,3.5,3.5,56,0.00,CLR,,0.00,WeatherDisplay:10.37,2013-04-04 13:07:00,
2013-04-04 09:12:00,44.1,28.5,30.35,NE,38,6.9,6.9,54,0.00,CLR,,0.00,WeatherDisplay:10.37,2013-04-04 13:12:00,
2013-04-04 09:17:00,44.2,28.6,30.34,SE,141,5.8,5.8,54,0.00,CLR,,0.00,WeatherDisplay:10.37,2013-04-04 13:17:00,
2013-04-04 09:22:00,44.2,28.6,30.34,ESE,120,3.5,3.5,54,0.00,CLR,,0.00,WeatherDisplay:10.37,2013-04-04 13:22:00,
2013-04-04 09:27:00,44.2,28.1,30.34,NW,322,3.5,3.5,53,0.00,CLR,,0.00,WeatherDisplay:10.37,2013-04-04 13:27:00,
2013-04-04 09:32:00,44.4,28.8,30.34,NNE,20,3.5,3.5,54,0.00,CLR,,0.00,WeatherDisplay:10.37,2013-04-04 13:32:00,
2013-04-04 09:37:00,44.8,28.7,30.34,East,80,6.9,6.9,53,0.00,CLR,,0.00,WeatherDisplay:10.37,2013-04-04 13:37:00,
2013-04-04 09:43:00,45.1,29.4,30.34,East,80,4.6,4.6,54,0.00,CLR,,0.00,WeatherDisplay:10.37,2013-04-04 13:43:00,
2013-04-04 09:48:00,45.5,29.3,30.34,SE,128,5.8,5.8,53,0.00,CLR,,0.00,WeatherDisplay:10.37,2013-04-04 13:48:00,
2013-04-04 09:53:00,45.8,29.6,30.34,ESE,116,8.1,8.1,53,0.00,CLR,,0.00,WeatherDisplay:10.37,2013-04-04 13:53:00,
2013-04-04 09:58:00,45.9,29.2,30.33,NE,56,3.0,3.0,52,0.00,CLR,,0.00,WeatherDisplay:10.37,2013-04-04 13:58:00,
2013-04-04 10:03:00,45.8,29.2,30.33,NW,323,3.5,3.5,52,0.00,CLR,,0.00,WeatherDisplay:10.37,2013-04-04 14:03:00,
2013-04-04 10:08:00,45.6,29.0,30.33,NE,50,3.5,3.5,52,0.00,CLR,,0.00,WeatherDisplay:10.37,2013-04-04 14:08:00,
2013-04-04 10:13:00,45.4,28.8,30.33,East,96,4.6,4.6,52,0.00,CLR,,0.00,WeatherDisplay:10.37,2013-04-04 14:13:00,
2013-04-04 10:18:00,45.1,29.0,30.33,WSW,238,4.6,4.6,53,0.00,CLR,,0.00,WeatherDisplay:10.37,2013-04-04 14:18:00,
2013-04-04 10:23:00,45.1,29.4,30.32,SSE,150,4.6,4.6,54,0.00,CLR,,0.00,WeatherDisplay:10.37,2013-04-04 14:23:00,
2013-04-04 10:28:00,45.2,29.1,30.33,East,84,5.8,5.8,53,0.00,CLR,,0.00,WeatherDisplay:10.37,2013-04-04 14:28:00,
2013-04-04 10:33:00,45.5,29.8,30.33,South,188,3.5,3.5,54,0.00,CLR,,0.00,WeatherDisplay:10.37,2013-04-04 14:33:00,
2013-04-04 10:38:00,46.0,30.3,30.33,SE,134,5.8,5.8,54,0.00,CLR,,0.00,WeatherDisplay:10.37,2013-04-04 14:38:00,
2013-04-04 10:43:00,46.3,31.0,30.32,West,281,1.1,1.1,55,0.00,CLR,,0.00,WeatherDisplay:10.37,2013-04-04 14:43:00,
2013-04-04 10:48:00,46.4,30.6,30.32,SE,134,3.5,3.5,54,0.00,CLR,,0.00,WeatherDisplay:10.37,2013-04-04 14:48:00,
2013-04-04 10:53:00,46.8,31.0,30.32,ESE,105,3.5,3.5,54,0.00,CLR,,0.00,WeatherDisplay:10.37,2013-04-04 14:53:00,
2013-04-04 10:58:00,46.7,30.5,30.32,West,271,3.5,3.5,53,0.00,CLR,,0.00,WeatherDisplay:10.37,2013-04-04 14:58:00,
2013-04-04 11:03:00,46.7,30.5,30.32,NW,326,3.5,3.5,53,0.00,CLR,,0.00,WeatherDisplay:10.37,2013-04-04 15:03:00,
2013-04-04 11:08:00,47.0,30.3,30.31,SE,127,8.1,8.1,52,0.00,CLR,,0.00,WeatherDisplay:10.37,2013-04-04 15:08:00,
2013-04-04 11:13:00,47.4,30.2,30.31,SW,236,5.8,5.8,51,0.00,CLR,,0.00,WeatherDisplay:10.37,2013-04-04 15:13:00,
2013-04-04 11:18:00,47.8,30.5,30.31,SSE,165,3.5,3.5,51,0.00,CLR,,0.00,WeatherDisplay:10.37,2013-04-04 15:18:00,
2013-04-04 11:23:00,48.1,30.3,30.31,NE,54,6.9,6.9,50,0.00,CLR,,0.00,WeatherDisplay:10.37,2013-04-04 15:23:00,
2013-04-04 11:28:00,48.2,30.4,30.31,SW,227,5.8,5.8,50,0.00,CLR,,0.00,WeatherDisplay:10.37,2013-04-04 15:28:00,
2013-04-04 11:33:00,48.4,30.6,30.30,ESE,109,4.6,4.6,50,0.00,CLR,,0.00,WeatherDisplay:10.37,2013-04-04 15:33:00,
2013-04-04 11:38:00,48.3,31.0,30.30,NW,307,2.3,2.3,51,0.00,CLR,,0.00,WeatherDisplay:10.37,2013-04-04 15:38:00,
2013-04-04 11:44:00,48.3,31.0,30.30,NE,35,2.3,2.3,51,0.00,CLR,,0.00,WeatherDisplay:10.37,2013-04-04 15:44:00,
2013-04-04 11:49:00,48.0,30.7,30.29,ENE,72,4.6,4.6,51,0.00,CLR,,0.00,WeatherDisplay:10.37,2013-04-04 15:49:00,
2013-04-04 11:54:00,48.1,31.3,30.29,ESE,113,3.5,3.5,52,0.00,CLR,,0.00,WeatherDisplay:10.37,2013-04-04 15:54:00,
2013-04-04 11:59:00,48.3,30.5,30.29,South,179,11.5,11.5,50,0.00,CLR,,0.00,WeatherDisplay:10.37,2013-04-04 15:59:00,
2013-04-04 12:05:00,48.8,31.5,30.28,WSW,249,3.5,3.5,51,0.00,CLR,,0.00,WeatherDisplay:10.37,2013-04-04 16:05:00,
2013-04-04 12:10:00,49.0,32.6,30.28,West,270,1.1,1.1,53,0.00,CLR,,0.00,WeatherDisplay:10.37,2013-04-04 16:10:00,
2013-04-04 12:15:00,49.3,33.3,30.28,SE,131,5.8,5.8,54,0.00,CLR,,0.00,WeatherDisplay:10.37,2013-04-04 16:15:00,
2013-04-04 12:20:00,49.1,31.7,30.28,SSE,167,9.2,9.2,51,0.00,CLR,,0.00,WeatherDisplay:10.37,2013-04-04 16:20:00,
2013-04-04 12:25:00,48.9,32.5,30.28,SE,127,4.6,4.6,53,0.00,CLR,,0.00,WeatherDisplay:10.37,2013-04-04 16:25:00,
2013-04-04 12:30:00,49.3,32.9,30.27,SE,124,3.5,3.5,53,0.00,CLR,,0.00,WeatherDisplay:10.37,2013-04-04 16:30:00,
2013-04-04 12:35:00,49.5,31.6,30.27,SSW,211,5.8,5.8,50,0.00,CLR,,0.00,WeatherDisplay:10.37,2013-04-04 16:35:00,
2013-04-04 12:40:00,49.5,32.1,30.26,SE,132,3.5,3.5,51,0.00,CLR,,0.00,WeatherDisplay:10.37,2013-04-04 16:40:00,
2013-04-04 12:45:00,50.0,32.1,30.26,East,94,3.5,3.5,50,0.00,CLR,,0.00,WeatherDisplay:10.37,2013-04-04 16:45:00,
2013-04-04 12:50:00,50.0,31.1,30.26,NNE,20,10.4,10.4,48,0.00,CLR,,0.00,WeatherDisplay:10.37,2013-04-04 16:50:00,
2013-04-04 12:55:00,50.3,32.4,30.25,WNW,296,3.5,3.5,50,0.00,CLR,,0.00,WeatherDisplay:10.37,2013-04-04 16:55:00,
2013-04-04 13:12:00,51.0,30.9,30.24,WSW,250,3.5,4.0,46,0.00,CLR,,0.00,WeatherDisplay:10.37,2013-04-04 17:12:00,
2013-04-04 13:17:00,50.6,30.6,30.23,SSE,158,10.4,10.4,46,0.00,CLR,,0.00,WeatherDisplay:10.37,2013-04-04 17:17:00,
2013-04-04 13:22:00,50.0,32.1,30.23,SSE,150,6.9,6.9,50,0.00,CLR,,0.00,WeatherDisplay:10.37,2013-04-04 17:22:00,
2013-04-04 13:28:00,49.5,32.6,30.23,North,359,4.6,4.6,52,0.00,CLR,,0.00,WeatherDisplay:10.37,2013-04-04 17:28:00,
2013-04-04 13:33:00,49.1,34.1,30.22,SSE,158,3.5,3.5,56,0.00,CLR,,0.00,WeatherDisplay:10.37,2013-04-04 17:33:00,
2013-04-04 13:38:00,48.5,35.2,30.22,North,354,4.6,4.6,60,0.01,RA,,0.01,WeatherDisplay:10.37,2013-04-04 17:38:00,
2013-04-04 13:43:00,48.0,35.2,30.22,SSE,150,4.6,4.6,61,0.01,RA,,0.01,WeatherDisplay:10.37,2013-04-04 17:43:00,
2013-04-04 13:48:00,47.6,36.8,30.22,NNW,346,2.3,2.3,66,0.02,RA,,0.03,WeatherDisplay:10.37,2013-04-04 17:48:00,
2013-04-04 13:53:00,47.2,37.9,30.22,East,79,1.1,1.1,70,0.03,RA,,0.03,WeatherDisplay:10.37,2013-04-04 17:53:00,
2013-04-04 13:58:00,46.8,38.2,30.22,ESE,118,1.1,0.0,72,0.04,RA,,0.04,WeatherDisplay:10.37,2013-04-04 17:58:00,
2013-04-04 14:03:00,46.5,38.3,30.22,ESE,108,1.1,1.1,73,0.04,RA,,0.04,WeatherDisplay:10.37,2013-04-04 18:03:00,
2013-04-04 14:08:00,46.3,38.8,30.22,North,360,0.0,0.0,75,0.04,,,0.04,WeatherDisplay:10.37,2013-04-04 18:08:00,
2013-04-04 14:13:00,46.2,38.7,30.23,North,6,0.0,0.0,75,0.04,CLR,,0.04,WeatherDisplay:10.37,2013-04-04 18:13:00,
2013-04-04 14:18:00,46.1,38.6,30.23,ESE,117,0.0,0.0,75,0.04,CLR,,0.04,WeatherDisplay:10.37,2013-04-04 18:18:00,
2013-04-04 14:23:00,45.9,38.8,30.22,NE,37,2.0,2.0,76,0.05,RA,,0.05,WeatherDisplay:10.37,2013-04-04 18:23:00,
2013-04-04 14:28:00,45.7,39.6,30.22,ESE,102,0.0,0.2,79,0.06,RA,,0.07,WeatherDisplay:10.37,2013-04-04 18:28:00,
2013-04-04 14:33:00,45.4,39.6,30.21,East,82,2.3,2.3,80,0.07,RA,,0.08,WeatherDisplay:10.37,2013-04-04 18:33:00,
2013-04-04 14:39:00,45.0,39.8,30.21,NW,323,3.5,3.5,82,0.07,RA,,0.08,WeatherDisplay:10.37,2013-04-04 18:39:00,
2013-04-04 14:44:00,44.7,39.9,30.20,ENE,62,1.0,1.0,83,0.08,RA,,0.09,WeatherDisplay:10.37,2013-04-04 18:44:00,
2013-04-04 14:49:00,44.6,40.1,30.20,ESE,116,2.3,2.3,84,0.06,RA,,0.09,WeatherDisplay:10.37,2013-04-04 18:49:00,
2013-04-04 14:54:00,44.5,40.3,30.20,North,354,2.3,2.3,85,0.06,CLR,,0.09,WeatherDisplay:10.37,2013-04-04 18:54:00,
2013-04-04 14:59:00,44.4,40.2,30.20,ENE,73,1.1,1.1,85,0.05,CLR,,0.09,WeatherDisplay:10.37,2013-04-04 18:59:00,
2013-04-04 15:04:00,44.3,40.1,30.19,SE,142,2.3,2.3,85,0.06,RA,,0.10,WeatherDisplay:10.37,2013-04-04 19:04:00,
2013-04-04 15:09:00,44.2,40.0,30.19,ESE,103,3.5,3.5,85,0.07,RA,,0.11,WeatherDisplay:10.37,2013-04-04 19:09:00,
2013-04-04 15:14:00,44.0,40.1,30.19,NNW,347,3.5,3.5,86,0.08,RA,,0.12,WeatherDisplay:10.37,2013-04-04 19:14:00,
2013-04-04 15:20:00,43.8,40.2,30.17,East,87,3.5,3.5,87,0.09,RA,,0.14,WeatherDisplay:10.37,2013-04-04 19:20:00,
2013-04-04 15:25:00,43.6,40.0,30.16,NNE,19,4.0,4.0,87,0.11,RA,,0.16,WeatherDisplay:10.37,2013-04-04 19:25:00,
2013-04-04 15:30:00,43.3,40.0,30.16,ESE,120,3.5,3.5,88,0.10,RA,,0.18,WeatherDisplay:10.37,2013-04-04 19:30:00,
2013-04-04 15:35:00,43.2,39.9,30.16,East,87,3.5,3.5,88,0.11,RA,,0.19,WeatherDisplay:10.37,2013-04-04 19:35:00,
2013-04-04 15:40:00,43.1,40.1,30.16,ENE,58,1.1,1.3,89,0.12,RA,,0.20,WeatherDisplay:10.37,2013-04-04 19:40:00,
2013-04-04 15:45:00,42.9,39.9,30.16,NE,37,4.6,4.6,89,0.12,RA,,0.21,WeatherDisplay:10.37,2013-04-04 19:45:00,
2013-04-04 15:50:00,42.8,39.8,30.16,ENE,70,4.6,4.6,89,0.13,RA,,0.22,WeatherDisplay:10.37,2013-04-04 19:50:00,
2013-04-04 15:55:00,42.7,40.0,30.17,NW,321,1.1,1.7,90,0.14,RA,,0.23,WeatherDisplay:10.37,2013-04-04 19:55:00,
2013-04-04 16:00:00,42.8,40.1,30.17,East,93,2.3,0.0,90,0.14,RA,,0.23,WeatherDisplay:10.37,2013-04-04 20:00:00,
2013-04-04 16:05:00,42.8,40.4,30.17,NNE,18,2.0,2.0,91,0.13,,,0.23,WeatherDisplay:10.37,2013-04-04 20:05:00,
2013-04-04 16:10:00,42.9,40.5,30.17,NNW,344,0.0,2.1,91,0.13,RA,,0.24,WeatherDisplay:10.37,2013-04-04 20:10:00,
2013-04-04 16:15:00,42.9,40.5,30.17,NNE,14,7.0,7.0,91,0.13,RA,,0.25,WeatherDisplay:10.37,2013-04-04 20:15:00,
2013-04-04 16:20:00,42.8,40.4,30.16,NW,304,4.6,4.6,91,0.14,RA,,0.27,WeatherDisplay:10.37,2013-04-04 20:20:00,
2013-04-04 16:25:00,42.8,40.4,30.16,NW,306,3.5,3.5,91,0.13,RA,,0.29,WeatherDisplay:10.37,2013-04-04 20:25:00,
2013-04-04 16:30:00,42.7,40.3,30.16,NNW,336,4.6,4.6,91,0.13,RA,,0.30,WeatherDisplay:10.37,2013-04-04 20:30:00,
2013-04-04 16:35:00,42.7,40.3,30.17,NW,319,0.0,0.2,91,0.12,RA,,0.31,WeatherDisplay:10.37,2013-04-04 20:35:00,
2013-04-04 16:40:00,42.6,40.4,30.17,East,97,3.5,3.5,92,0.11,RA,,0.31,WeatherDisplay:10.37,2013-04-04 20:40:00,
2013-04-04 16:45:00,42.6,40.4,30.16,SE,139,5.8,5.8,92,0.11,RA,,0.32,WeatherDisplay:10.37,2013-04-04 20:45:00,
2013-04-04 16:50:00,42.6,40.4,30.16,NW,320,0.0,0.1,92,0.11,RA,,0.33,WeatherDisplay:10.37,2013-04-04 20:50:00,
2013-04-04 16:55:00,42.7,40.5,30.16,North,11,5.8,5.8,92,0.11,RA,,0.34,WeatherDisplay:10.37,2013-04-04 20:55:00,
2013-04-04 17:01:00,42.6,40.4,30.15,ENE,74,3.5,3.5,92,0.12,RA,,0.35,WeatherDisplay:10.37,2013-04-04 21:01:00,
2013-04-04 17:06:00,42.6,40.7,30.15,NNE,19,2.3,2.3,93,0.12,RA,,0.35,WeatherDisplay:10.37,2013-04-04 21:06:00,
2013-04-04 17:11:00,42.4,40.2,30.14,SSE,162,4.0,4.0,92,0.11,,,0.36,WeatherDisplay:10.37,2013-04-04 21:11:00,
2013-04-04 17:16:00,42.3,40.1,30.14,NNW,342,5.8,5.8,92,0.11,RA,,0.36,WeatherDisplay:10.37,2013-04-04 21:16:00,
2013-04-04 17:21:00,42.1,39.9,30.14,NNE,13,7.0,7.0,92,0.09,RA,,0.36,WeatherDisplay:10.37,2013-04-04 21:21:00,
2013-04-04 17:26:00,41.9,39.7,30.14,West,260,3.5,3.5,92,0.08,RA,,0.37,WeatherDisplay:10.37,2013-04-04 21:26:00,
2013-04-04 17:31:00,41.8,39.6,30.13,NE,37,5.8,5.8,92,0.09,RA,,0.39,WeatherDisplay:10.37,2013-04-04 21:31:00,
2013-04-04 17:36:00,41.7,39.8,30.12,NE,38,2.3,2.3,93,0.09,RA,,0.40,WeatherDisplay:10.37,2013-04-04 21:36:00,
2013-04-04 17:41:00,41.6,39.7,30.12,NW,326,6.9,6.9,93,0.09,RA,,0.41,WeatherDisplay:10.37,2013-04-04 21:41:00,
2013-04-04 17:46:00,41.5,39.6,30.13,SW,226,3.5,3.5,93,0.09,RA,,0.41,WeatherDisplay:10.37,2013-04-04 21:46:00,
2013-04-04 17:51:00,41.4,39.5,30.11,East,92,6.9,6.9,93,0.08,RA,,0.41,WeatherDisplay:10.37,2013-04-04 21:51:00,
2013-04-04 17:56:00,41.3,39.4,30.11,ENE,78,5.0,5.0,93,0.08,RA,,0.42,WeatherDisplay:10.37,2013-04-04 21:56:00,
2013-04-04 18:01:00,41.1,39.0,30.11,ESE,103,4.6,4.6,92,0.09,RA,,0.44,WeatherDisplay:10.37,2013-04-04 22:01:00,
2013-04-04 18:07:00,41.1,39.2,30.11,ENE,63,6.0,6.0,93,0.09,RA,,0.44,WeatherDisplay:10.37,2013-04-04 22:07:00,
2013-04-04 18:12:00,41.0,39.1,30.10,SE,133,3.5,3.5,93,0.09,RA,,0.45,WeatherDisplay:10.37,2013-04-04 22:12:00,
2013-04-04 18:17:00,41.0,39.1,30.10,ENE,65,8.1,8.1,93,0.10,RA,,0.46,WeatherDisplay:10.37,2013-04-04 22:17:00,
2013-04-04 18:22:00,41.0,39.1,30.10,East,86,8.0,8.0,93,0.11,RA,,0.47,WeatherDisplay:10.37,2013-04-04 22:22:00,
2013-04-04 18:27:00,41.0,39.4,30.10,NE,44,2.3,2.3,94,0.11,RA,,0.48,WeatherDisplay:10.37,2013-04-04 22:27:00,
2013-04-04 18:32:00,41.0,39.4,30.09,SW,224,8.1,8.1,94,0.09,RA,,0.48,WeatherDisplay:10.37,2013-04-04 22:32:00,
2013-04-04 18:37:00,41.0,39.4,30.09,NE,34,4.6,4.6,94,0.09,RA,,0.49,WeatherDisplay:10.37,2013-04-04 22:37:00,
2013-04-04 18:42:00,41.0,39.4,30.09,North,359,4.0,4.0,94,0.08,RA,,0.49,WeatherDisplay:10.37,2013-04-04 22:42:00,
2013-04-04 18:47:00,40.9,39.0,30.09,South,177,10.4,10.4,93,0.09,RA,,0.50,WeatherDisplay:10.37,2013-04-04 22:47:00,
2013-04-04 18:52:00,40.9,39.0,30.08,ESE,107,3.5,3.5,93,0.09,RA,,0.50,WeatherDisplay:10.37,2013-04-04 22:52:00,
2013-04-04 18:57:00,40.7,38.6,30.07,NNE,25,11.5,11.5,92,0.08,RA,,0.51,WeatherDisplay:10.37,2013-04-04 22:57:00,
2013-04-04 19:02:00,40.6,38.2,30.06,NE,35,8.1,8.1,91,0.08,RA,,0.52,WeatherDisplay:10.37,2013-04-04 23:02:00,
2013-04-04 19:07:00,40.4,38.3,30.06,East,97,12.7,12.7,92,0.08,RA,,0.52,WeatherDisplay:10.37,2013-04-04 23:07:00,
2013-04-04 19:12:00,40.4,38.3,30.07,ENE,65,8.1,8.1,92,0.08,RA,,0.53,WeatherDisplay:10.37,2013-04-04 23:12:00,
2013-04-04 19:17:00,40.2,38.1,30.06,SW,229,2.3,2.3,92,0.07,RA,,0.53,WeatherDisplay:10.37,2013-04-04 23:17:00,
2013-04-04 19:22:00,40.1,38.0,30.05,West,259,9.2,9.2,92,0.06,CLR,,0.53,WeatherDisplay:10.37,2013-04-04 23:22:00,
2013-04-04 19:27:00,40.1,38.0,30.05,East,98,6.9,6.9,92,0.05,CLR,,0.53,WeatherDisplay:10.37,2013-04-04 23:27:00,
2013-04-04 19:33:00,40.0,37.9,30.05,NNW,342,6.9,6.9,92,0.05,CLR,,0.53,WeatherDisplay:10.37,2013-04-04 23:33:00,
2013-04-04 19:38:00,40.0,37.9,30.04,ENE,77,13.8,13.8,92,0.04,CLR,,0.53,WeatherDisplay:10.37,2013-04-04 23:38:00,
2013-04-04 19:43:00,40.0,38.1,30.04,NNE,30,4.6,4.6,93,0.04,CLR,,0.53,WeatherDisplay:10.37,2013-04-04 23:43:00,
2013-04-04 19:48:00,39.9,38.0,30.03,SSE,152,4.6,4.6,93,0.03,CLR,,0.53,WeatherDisplay:10.37,2013-04-04 23:48:00,
2013-04-04 19:53:00,39.9,38.0,30.03,West,276,3.5,3.5,93,0.03,CLR,,0.53,WeatherDisplay:10.37,2013-04-04 23:53:00,
2013-04-04 19:58:00,40.0,38.1,30.04,SSE,158,3.5,3.5,93,0.03,RA,,0.54,WeatherDisplay:10.37,2013-04-04 23:58:00,
2013-04-04 20:03:00,40.0,38.1,30.04,ENE,62,4.6,4.6,93,0.02,RA,,0.54,WeatherDisplay:10.37,2013-04-05 00:03:00,
2013-04-04 20:08:00,39.9,38.0,30.03,NNW,329,3.5,3.5,93,0.02,CLR,,0.54,WeatherDisplay:10.37,2013-04-05 00:08:00,
2013-04-04 20:13:00,39.9,38.0,30.03,ESE,121,9.2,9.2,93,0.02,RA,,0.55,WeatherDisplay:10.37,2013-04-05 00:13:00,
2013-04-04 20:18:00,39.9,38.0,30.02,NNE,20,3.5,3.5,93,0.02,RA,,0.55,WeatherDisplay:10.37,2013-04-05 00:18:00,
2013-04-04 20:23:00,39.9,38.0,30.02,NE,54,4.6,4.6,93,0.03,RA,,0.56,WeatherDisplay:10.37,2013-04-05 00:23:00,
2013-04-04 20:28:00,39.8,38.2,30.03,NNE,14,4.0,4.0,94,0.04,RA,,0.57,WeatherDisplay:10.37,2013-04-05 00:28:00,
2013-04-04 20:33:00,39.8,38.2,30.01,SW,226,3.5,3.5,94,0.05,RA,,0.58,WeatherDisplay:10.37,2013-04-05 00:33:00,
2013-04-04 20:38:00,39.9,38.3,30.01,ESE,118,4.6,4.6,94,0.08,RA,,0.61,WeatherDisplay:10.37,2013-04-05 00:38:00,
2013-04-04 20:43:00,39.8,38.2,30.00,ESE,120,4.6,4.6,94,0.11,RA,,0.64,WeatherDisplay:10.37,2013-04-05 00:43:00,
2013-04-04 20:48:00,39.8,38.2,30.00,SSW,203,5.8,5.8,94,0.14,RA,,0.68,WeatherDisplay:10.37,2013-04-05 00:48:00,
2013-04-04 20:53:00,39.7,38.1,29.99,West,280,4.6,4.6,94,0.18,RA,,0.71,WeatherDisplay:10.37,2013-04-05 00:53:00,
2013-04-04 20:58:00,39.8,38.5,29.99,ENE,70,8.1,8.1,95,0.19,RA,,0.73,WeatherDisplay:10.37,2013-04-05 00:58:00,
2013-04-04 21:03:00,39.7,38.4,30.00,SE,127,11.5,11.5,95,0.20,RA,,0.74,WeatherDisplay:10.37,2013-04-05 01:03:00,
2013-04-04 21:08:00,39.8,38.5,30.00,NNW,336,4.6,4.6,95,0.22,RA,,0.77,WeatherDisplay:10.37,2013-04-05 01:08:00,
2013-04-04 21:13:00,39.9,38.6,29.99,ENE,65,3.5,3.5,95,0.24,RA,,0.79,WeatherDisplay:10.37,2013-04-05 01:13:00,
2013-04-04 21:18:00,39.9,38.6,29.99,NNE,25,2.3,2.3,95,0.25,RA,,0.81,WeatherDisplay:10.37,2013-04-05 01:18:00,
2013-04-04 21:23:00,39.9,38.6,29.99,SW,233,3.5,3.5,95,0.26,RA,,0.82,WeatherDisplay:10.37,2013-04-05 01:23:00,
2013-04-04 21:28:00,40.1,38.8,29.99,NNW,347,4.6,4.6,95,0.27,RA,,0.84,WeatherDisplay:10.37,2013-04-05 01:28:00,
2013-04-04 21:33:00,40.1,38.8,29.99,NNE,21,6.9,6.9,95,0.28,RA,,0.86,WeatherDisplay:10.37,2013-04-05 01:33:00,
2013-04-04 21:38:00,40.1,38.8,29.99,NE,37,9.2,9.2,95,0.27,RA,,0.88,WeatherDisplay:10.37,2013-04-05 01:38:00,
2013-04-04 21:43:00,40.1,38.8,29.98,NNE,20,8.1,8.1,95,0.26,RA,,0.90,WeatherDisplay:10.37,2013-04-05 01:43:00,
2013-04-04 21:48:00,40.0,38.7,29.98,NW,320,4.0,4.0,95,0.24,RA,,0.91,WeatherDisplay:10.37,2013-04-05 01:48:00,
2013-04-04 21:53:00,40.0,38.7,29.98,ENE,60,4.0,4.0,95,0.21,RA,,0.92,WeatherDisplay:10.37,2013-04-05 01:53:00,
2013-04-04 21:58:00,39.9,38.6,29.98,North,358,3.5,3.5,95,0.20,RA,,0.93,WeatherDisplay:10.37,2013-04-05 01:58:00,
2013-04-04 22:03:00,39.9,38.6,29.98,WNW,295,3.0,3.0,95,0.20,RA,,0.94,WeatherDisplay:10.37,2013-04-05 02:03:00,
2013-04-04 22:08:00,39.8,38.5,29.98,NW,318,2.3,2.5,95,0.19,RA,,0.96,WeatherDisplay:10.37,2013-04-05 02:08:00,
2013-04-04 22:13:00,39.7,38.4,29.97,NNW,328,2.3,2.3,95,0.18,RA,,0.97,WeatherDisplay:10.37,2013-04-05 02:13:00,
2013-04-04 22:18:00,39.7,38.4,29.96,NNE,22,5.8,5.8,95,0.20,RA,,1.00,WeatherDisplay:10.37,2013-04-05 02:18:00,
2013-04-04 22:23:00,39.7,38.4,29.96,West,267,3.5,3.5,95,0.19,RA,,1.01,WeatherDisplay:10.37,2013-04-05 02:23:00,
2013-04-04 22:29:00,39.6,38.3,29.96,WNW,288,6.9,6.9,95,0.18,RA,,1.02,WeatherDisplay:10.37,2013-04-05 02:29:00,
2013-04-04 22:34:00,39.6,38.3,29.95,ENE,77,6.0,6.0,95,0.17,RA,,1.03,WeatherDisplay:10.37,2013-04-05 02:34:00,
2013-04-04 22:39:00,39.6,38.3,29.95,ESE,120,8.1,8.1,95,0.15,RA,,1.03,WeatherDisplay:10.37,2013-04-05 02:39:00,
2013-04-04 22:44:00,39.5,38.2,29.95,SE,142,3.5,3.5,95,0.14,RA,,1.04,WeatherDisplay:10.37,2013-04-05 02:44:00,
2013-04-04 22:49:00,39.5,38.5,29.95,NW,314,5.0,5.0,96,0.14,RA,,1.05,WeatherDisplay:10.37,2013-04-05 02:49:00,
2013-04-04 22:54:00,39.5,38.5,29.94,NNE,30,4.6,4.6,96,0.13,RA,,1.05,WeatherDisplay:10.37,2013-04-05 02:54:00,
2013-04-04 22:59:00,39.5,38.5,29.94,NNE,25,10.4,10.4,96,0.13,RA,,1.06,WeatherDisplay:10.37,2013-04-05 02:59:00,
2013-04-04 23:05:00,39.5,38.5,29.94,East,96,3.0,3.0,96,0.12,RA,,1.06,WeatherDisplay:10.37,2013-04-05 03:05:00,
2013-04-04 23:10:00,39.5,38.5,29.94,ESE,119,6.9,6.9,96,0.10,,,1.07,WeatherDisplay:10.37,2013-04-05 03:10:00,
2013-04-04 23:15:00,39.5,38.5,29.93,NNW,343,3.5,3.5,96,0.09,RA,,1.07,WeatherDisplay:10.37,2013-04-05 03:15:00,
2013-04-04 23:20:00,39.5,38.5,29.94,NNE,29,3.5,3.5,96,0.07,RA,,1.07,WeatherDisplay:10.37,2013-04-05 03:20:00,
2013-04-04 23:25:00,39.6,38.6,29.93,East,98,9.2,9.2,96,0.06,CLR,,1.07,WeatherDisplay:10.37,2013-04-05 03:25:00,
2013-04-04 23:30:00,39.6,38.6,29.93,NNW,339,3.5,3.5,96,0.05,CLR,,1.07,WeatherDisplay:10.37,2013-04-05 03:30:00,
2013-04-04 23:35:00,39.6,38.6,29.93,East,100,4.6,4.6,96,0.05,RA,,1.08,WeatherDisplay:10.37,2013-04-05 03:35:00,
2013-04-04 23:40:00,39.6,38.6,29.92,West,266,4.6,4.6,96,0.05,RA,,1.08,WeatherDisplay:10.37,2013-04-05 03:40:00,
2013-04-04 23:45:00,39.6,38.3,29.92,SW,228,4.6,4.6,95,0.04,CLR,,1.08,WeatherDisplay:10.37,2013-04-05 03:45:00,
2013-04-04 23:50:00,39.6,38.6,29.92,South,172,5.8,5.8,96,0.03,CLR,,1.08,WeatherDisplay:10.37,2013-04-05 03:50:00,
2013-04-04 23:55:00,39.6,38.3,29.91,East,93,8.1,8.1,95,0.03,CLR,,1.08,WeatherDisplay:10.37,2013-04-05 03:55:00,